createdAt,value
2022-11-18T00:00:15.161Z,68.56
2022-11-18T00:01:20.525Z,68.51
2022-11-18T00:02:22.723Z,68.52
2022-11-18T00:03:25.102Z,68.53
2022-11-18T00:04:27.339Z,68.61
2022-11-18T00:05:29.520Z,68.54
2022-11-18T00:06:31.746Z,68.63
2022-11-18T00:07:34.043Z,68.60
2022-11-18T00:08:36.332Z,68.63
2022-11-18T00:09:38.570Z,68.62
2022-11-18T00:10:40.779Z,68.62
2022-11-18T00:12:02.006Z,68.53
2022-11-18T00:13:22.960Z,68.51
2022-11-18T00:14:27.635Z,68.50
2022-11-18T00:15:31.805Z,68.47
2022-11-18T00:16:34.157Z,68.37
2022-11-18T00:17:36.375Z,68.51
2022-11-18T00:18:39.406Z,68.39
2022-11-18T00:19:41.647Z,68.44
2022-11-18T00:20:43.817Z,68.54
2022-11-18T00:21:46.043Z,68.49
2022-11-18T00:22:48.206Z,68.43
2022-11-18T00:23:50.428Z,68.39
2022-11-18T00:24:52.625Z,68.54
2022-11-18T00:25:54.883Z,68.52
2022-11-18T00:26:57.320Z,68.43
2022-11-18T00:27:59.678Z,68.67
2022-11-18T00:29:02.042Z,68.54
2022-11-18T00:30:04.537Z,68.49
2022-11-18T00:31:10.072Z,68.52
2022-11-18T00:32:12.282Z,68.49
2022-11-18T00:33:14.435Z,68.35
2022-11-18T00:34:18.832Z,68.49
2022-11-18T00:35:21.008Z,68.35
2022-11-18T00:36:23.241Z,68.37
2022-11-18T00:37:26.273Z,68.42
2022-11-18T00:38:30.273Z,68.52
2022-11-18T00:39:32.443Z,68.45
2022-11-18T00:40:34.634Z,68.54
2022-11-18T00:41:55.383Z,68.42
2022-11-18T00:42:57.581Z,68.52
2022-11-18T00:44:00.507Z,68.54
2022-11-18T00:45:02.839Z,68.47
2022-11-18T00:46:07.122Z,68.47
2022-11-18T00:47:09.338Z,68.32
2022-11-18T00:48:11.642Z,68.39
2022-11-18T00:49:14.170Z,68.43
2022-11-18T00:50:19.105Z,68.50
2022-11-18T00:51:21.295Z,68.51
2022-11-18T00:52:23.501Z,68.49
2022-11-18T00:53:27.113Z,68.45
2022-11-18T00:54:29.371Z,68.52
2022-11-18T00:55:31.897Z,68.55
2022-11-18T00:56:34.285Z,68.44
2022-11-18T00:57:36.542Z,68.40
2022-11-18T00:58:38.985Z,68.51
2022-11-18T00:59:41.217Z,68.55
2022-11-18T01:00:45.314Z,68.47
2022-11-18T01:01:49.039Z,68.56
2022-11-18T01:02:51.503Z,68.46
2022-11-18T01:03:53.747Z,68.50
2022-11-18T01:04:55.936Z,68.50
2022-11-18T01:05:58.168Z,68.58
2022-11-18T01:07:00.544Z,68.57
2022-11-18T01:08:02.812Z,68.58
2022-11-18T01:09:05.056Z,68.61
2022-11-18T01:10:07.511Z,68.58
2022-11-18T01:11:28.516Z,68.72
2022-11-18T01:12:54.093Z,68.88
2022-11-18T01:13:56.731Z,68.84
2022-11-18T01:14:59.481Z,68.83
2022-11-18T01:16:01.660Z,68.84
2022-11-18T01:17:04.321Z,68.91
2022-11-18T01:18:06.647Z,68.90
2022-11-18T01:19:08.826Z,68.93
2022-11-18T01:20:11.615Z,68.87
2022-11-18T01:21:13.991Z,68.91
2022-11-18T01:22:16.379Z,69.09
2022-11-18T01:23:22.674Z,68.98
2022-11-18T01:24:24.891Z,68.98
2022-11-18T01:25:29.002Z,69.00
2022-11-18T01:26:31.176Z,69.00
2022-11-18T01:27:34.084Z,69.09
2022-11-18T01:28:36.849Z,69.08
2022-11-18T01:29:39.082Z,69.16
2022-11-18T01:30:41.853Z,69.21
2022-11-18T01:32:08.774Z,69.26
2022-11-18T01:33:06.889Z,69.29
2022-11-18T01:34:09.095Z,69.26
2022-11-18T01:35:11.918Z,69.30
2022-11-18T01:36:20.468Z,69.36
2022-11-18T01:37:23.026Z,69.37
2022-11-18T01:38:25.488Z,69.30
2022-11-18T01:39:27.758Z,69.25
2022-11-18T01:40:30.428Z,69.27
2022-11-18T01:41:33.062Z,69.37
2022-11-18T01:42:36.013Z,69.30
2022-11-18T01:43:54.644Z,69.36
2022-11-18T01:45:01.047Z,69.38
2022-11-18T01:46:05.738Z,69.38
2022-11-18T01:47:08.100Z,69.47
2022-11-18T01:48:20.729Z,69.40
2022-11-18T01:49:25.272Z,69.43
2022-11-18T01:50:28.606Z,69.38
2022-11-18T01:51:36.750Z,69.41
2022-11-18T01:52:41.176Z,69.28
2022-11-18T01:53:50.127Z,69.54
2022-11-18T01:54:57.761Z,69.46
2022-11-18T01:56:07.844Z,69.58
2022-11-18T01:57:17.324Z,69.49
2022-11-18T01:58:42.679Z,69.53
2022-11-18T01:59:49.509Z,69.54
2022-11-18T02:00:52.008Z,69.57
2022-11-18T02:02:00.093Z,69.61
2022-11-18T02:03:03.116Z,69.58
2022-11-18T02:04:07.399Z,69.59
2022-11-18T02:05:14.398Z,69.60
2022-11-18T02:06:17.419Z,69.64
2022-11-18T02:07:21.527Z,69.62
2022-11-18T02:08:24.011Z,69.59
2022-11-18T02:09:26.340Z,69.58
2022-11-18T02:10:28.815Z,69.68
2022-11-18T02:11:50.628Z,69.63
2022-11-18T02:12:53.858Z,69.71
2022-11-18T02:13:56.937Z,69.70
2022-11-18T02:15:00.309Z,69.79
2022-11-18T02:16:15.916Z,69.82
2022-11-18T02:17:48.810Z,69.89
2022-11-18T02:19:04.365Z,69.97
2022-11-18T02:20:09.431Z,69.88
2022-11-18T02:21:23.169Z,69.97
2022-11-18T02:23:00.623Z,69.94
2022-11-18T02:24:23.811Z,69.91
2022-11-18T02:26:07.845Z,69.97
2022-11-18T02:27:22.221Z,70.00
2022-11-18T02:28:48.780Z,70.05
2022-11-18T02:30:13.677Z,70.14
2022-11-18T02:31:55.680Z,70.13
2022-11-18T02:33:07.407Z,70.08
2022-11-18T02:34:42.978Z,70.23
2022-11-18T02:35:56.679Z,70.23
2022-11-18T02:37:07.977Z,70.20
2022-11-18T02:38:28.535Z,70.27
2022-11-18T02:39:36.722Z,70.29
2022-11-18T02:40:46.695Z,70.26
2022-11-18T02:41:53.451Z,70.24
2022-11-18T02:43:01.044Z,70.24
2022-11-18T02:44:13.405Z,70.29
2022-11-18T02:45:18.456Z,70.16
2022-11-18T02:46:28.698Z,70.21
2022-11-18T02:47:33.431Z,70.16
2022-11-18T02:48:40.234Z,70.14
2022-11-18T02:49:47.387Z,70.23
2022-11-18T02:50:50.548Z,70.22
2022-11-18T02:51:55.547Z,70.20
2022-11-18T02:53:01.434Z,70.19
2022-11-18T02:54:09.345Z,70.11
2022-11-18T02:55:14.903Z,70.17
2022-11-18T02:56:20.374Z,70.11
2022-11-18T02:57:25.488Z,70.10
2022-11-18T02:58:27.850Z,70.12
2022-11-18T02:59:30.162Z,70.18
2022-11-18T03:00:33.463Z,70.09
2022-11-18T03:01:36.640Z,70.10
2022-11-18T03:02:47.673Z,70.14
2022-11-18T03:03:50.789Z,70.18
2022-11-18T03:05:00.476Z,70.09
2022-11-18T03:06:13.834Z,69.94
2022-11-18T03:07:23.624Z,69.91
2022-11-18T03:08:32.227Z,70.12
2022-11-18T03:09:38.817Z,70.01
2022-11-18T03:10:52.847Z,70.04
2022-11-18T03:12:07.727Z,70.03
2022-11-18T03:13:39.592Z,70.11
2022-11-18T03:14:56.269Z,70.15
2022-11-18T03:16:07.045Z,70.08
2022-11-18T03:17:34.012Z,70.07
2022-11-18T03:18:52.564Z,70.23
2022-11-18T03:20:04.799Z,70.20
2022-11-18T03:21:14.004Z,70.00
2022-11-18T03:22:48.409Z,70.12
2022-11-18T03:23:59.564Z,70.12
2022-11-18T03:25:11.796Z,70.08
2022-11-18T03:26:21.156Z,70.06
2022-11-18T03:27:34.399Z,70.18
2022-11-18T03:28:44.304Z,70.24
2022-11-18T03:29:54.436Z,70.15
2022-11-18T03:31:24.306Z,70.25
2022-11-18T03:32:30.009Z,70.17
2022-11-18T03:33:42.321Z,70.13
2022-11-18T03:34:49.767Z,70.11
2022-11-18T03:35:55.502Z,70.23
2022-11-18T03:37:07.602Z,70.14
2022-11-18T03:38:17.538Z,70.17
2022-11-18T03:39:23.103Z,70.13
2022-11-18T03:40:31.046Z,70.22
2022-11-18T03:41:39.550Z,70.15
2022-11-18T03:42:46.545Z,70.22
2022-11-18T03:43:56.973Z,70.13
2022-11-18T03:45:22.323Z,70.09
2022-11-18T03:46:35.775Z,70.06
2022-11-18T03:47:42.656Z,70.03
2022-11-18T03:48:50.042Z,69.85
2022-11-18T03:50:21.239Z,69.99
2022-11-18T03:51:33.936Z,69.98
2022-11-18T03:52:37.324Z,69.70
2022-11-18T03:53:48.111Z,69.59
2022-11-18T03:54:53.179Z,69.52
2022-11-18T03:56:02.170Z,69.25
2022-11-18T03:57:12.572Z,69.19
2022-11-18T03:58:28.008Z,69.06
2022-11-18T03:59:57.954Z,68.90
2022-11-18T04:01:09.307Z,68.68
2022-11-18T04:02:15.703Z,68.83
2022-11-18T04:03:18.138Z,68.78
2022-11-18T04:04:21.213Z,68.66
2022-11-18T04:05:23.645Z,68.56
2022-11-18T04:06:40.057Z,68.39
2022-11-18T04:07:54.994Z,68.45
2022-11-18T04:09:03.210Z,68.43
2022-11-18T04:10:29.619Z,68.50
2022-11-18T04:11:58.085Z,68.49
2022-11-18T04:13:09.050Z,68.32
2022-11-18T04:14:14.075Z,68.31
2022-11-18T04:15:16.685Z,68.18
2022-11-18T04:16:18.894Z,68.14
2022-11-18T04:17:23.883Z,68.20
2022-11-18T04:18:26.139Z,68.05
2022-11-18T04:19:28.477Z,67.90
2022-11-18T04:20:32.037Z,67.74
2022-11-18T04:21:34.288Z,67.89
2022-11-18T04:22:36.862Z,67.83
2022-11-18T04:23:39.042Z,67.70
2022-11-18T04:24:41.718Z,67.64
2022-11-18T04:25:44.050Z,67.61
2022-11-18T04:26:46.270Z,67.67
2022-11-18T04:27:48.462Z,67.75
2022-11-18T04:28:51.873Z,67.54
2022-11-18T04:29:54.073Z,67.50
2022-11-18T04:30:56.293Z,67.47
2022-11-18T04:31:59.694Z,67.58
2022-11-18T04:33:02.524Z,67.41
2022-11-18T04:34:04.711Z,67.42
2022-11-18T04:35:07.074Z,67.55
2022-11-18T04:36:09.657Z,67.58
2022-11-18T04:37:11.909Z,67.54
2022-11-18T04:38:17.825Z,67.59
2022-11-18T04:39:25.285Z,67.44
2022-11-18T04:40:27.498Z,67.47
2022-11-18T04:41:48.419Z,67.44
2022-11-18T04:42:50.683Z,67.45
2022-11-18T04:43:52.904Z,67.37
2022-11-18T04:44:55.235Z,67.35
2022-11-18T04:45:57.535Z,67.45
2022-11-18T04:47:04.855Z,67.38
2022-11-18T04:48:07.108Z,67.51
2022-11-18T04:49:11.400Z,67.50
2022-11-18T04:50:13.649Z,67.39
2022-11-18T04:51:15.962Z,67.27
2022-11-18T04:52:18.226Z,67.41
2022-11-18T04:53:20.435Z,67.28
2022-11-18T04:54:23.890Z,67.28
2022-11-18T04:55:27.409Z,67.38
2022-11-18T04:56:30.030Z,67.21
2022-11-18T04:57:32.296Z,67.24
2022-11-18T04:58:34.546Z,67.29
2022-11-18T04:59:36.902Z,67.30
2022-11-18T05:00:39.186Z,67.39
2022-11-18T05:01:41.594Z,67.38
2022-11-18T05:02:46.454Z,67.44
2022-11-18T05:03:50.714Z,67.48
2022-11-18T05:04:53.429Z,67.38
2022-11-18T05:05:55.689Z,67.48
2022-11-18T05:06:59.413Z,67.21
2022-11-18T05:08:01.670Z,67.39
2022-11-18T05:09:04.034Z,67.38
2022-11-18T05:10:06.574Z,67.31
2022-11-18T05:11:27.637Z,67.25
2022-11-18T05:12:48.260Z,67.17
2022-11-18T05:13:51.265Z,67.14
2022-11-18T05:14:53.524Z,67.17
2022-11-18T05:15:55.753Z,67.03
2022-11-18T05:17:00.592Z,67.08
2022-11-18T05:18:02.984Z,67.10
2022-11-18T05:19:06.273Z,67.10
2022-11-18T05:20:09.510Z,67.14
2022-11-18T05:21:12.323Z,66.91
2022-11-18T05:22:15.697Z,67.15
2022-11-18T05:23:17.924Z,67.10
2022-11-18T05:24:20.219Z,67.00
2022-11-18T05:25:22.445Z,67.05
2022-11-18T05:26:24.666Z,67.15
2022-11-18T05:27:26.893Z,67.00
2022-11-18T05:28:30.631Z,67.00
2022-11-18T05:29:34.063Z,66.90
2022-11-18T05:30:36.255Z,67.11
2022-11-18T05:31:38.794Z,67.17
2022-11-18T05:32:40.968Z,67.04
2022-11-18T05:33:44.070Z,67.04
2022-11-18T05:34:46.360Z,67.12
2022-11-18T05:35:52.468Z,67.04
2022-11-18T05:36:57.355Z,67.04
2022-11-18T05:38:01.434Z,66.86
2022-11-18T05:39:04.847Z,66.92
2022-11-18T05:40:07.826Z,66.89
2022-11-18T05:41:10.754Z,66.92
2022-11-18T05:42:31.551Z,66.98
2022-11-18T05:43:34.822Z,67.01
2022-11-18T05:44:37.052Z,66.84
2022-11-18T05:45:40.213Z,66.89
2022-11-18T05:46:42.473Z,66.83
2022-11-18T05:48:01.303Z,66.73
2022-11-18T05:49:03.611Z,66.83
2022-11-18T05:50:06.501Z,66.83
2022-11-18T05:51:08.816Z,66.81
2022-11-18T05:52:11.133Z,66.79
2022-11-18T05:53:13.787Z,66.71
2022-11-18T05:54:19.091Z,66.81
2022-11-18T05:55:25.865Z,66.64
2022-11-18T05:56:30.292Z,66.84
2022-11-18T05:57:32.725Z,66.88
2022-11-18T05:58:34.910Z,66.70
2022-11-18T05:59:37.153Z,66.84
2022-11-18T06:00:39.884Z,66.70
2022-11-18T06:01:48.146Z,66.62
2022-11-18T06:02:54.264Z,66.63
2022-11-18T06:03:57.514Z,66.61
2022-11-18T06:05:03.257Z,66.55
2022-11-18T06:06:10.125Z,66.68
2022-11-18T06:07:23.263Z,66.55
2022-11-18T06:08:31.580Z,66.71
2022-11-18T06:09:39.167Z,66.50
2022-11-18T06:10:43.349Z,66.66
2022-11-18T06:11:50.561Z,66.61
2022-11-18T06:12:56.977Z,66.69
2022-11-18T06:14:12.011Z,66.74
2022-11-18T06:15:24.213Z,66.63
2022-11-18T06:16:29.171Z,66.50
2022-11-18T06:17:36.368Z,66.52
2022-11-18T06:18:39.224Z,66.63
2022-11-18T06:19:41.851Z,66.43
2022-11-18T06:20:44.786Z,66.45
2022-11-18T06:21:47.707Z,66.39
2022-11-18T06:22:53.805Z,66.26
2022-11-18T06:23:56.601Z,66.29
2022-11-18T06:25:00.665Z,66.33
2022-11-18T06:26:03.666Z,66.21
2022-11-18T06:27:06.238Z,66.21
2022-11-18T06:28:10.960Z,66.24
2022-11-18T06:29:19.477Z,66.39
2022-11-18T06:30:23.917Z,66.30
2022-11-18T06:31:26.127Z,66.32
2022-11-18T06:32:28.332Z,66.26
2022-11-18T06:33:30.621Z,66.25
2022-11-18T06:34:36.729Z,66.23
2022-11-18T06:35:43.170Z,66.30
2022-11-18T06:36:45.476Z,66.42
2022-11-18T06:37:47.867Z,66.36
2022-11-18T06:38:51.514Z,66.21
2022-11-18T06:39:53.798Z,66.30
2022-11-18T06:41:01.102Z,66.24
2022-11-18T06:42:03.458Z,66.12
2022-11-18T06:43:28.561Z,66.12
2022-11-18T06:44:30.804Z,66.16
2022-11-18T06:45:33.590Z,66.14
2022-11-18T06:46:54.166Z,66.18
2022-11-18T06:48:04.314Z,66.26
2022-11-18T06:49:06.582Z,66.29
2022-11-18T06:50:09.345Z,66.06
2022-11-18T06:51:11.821Z,66.05
2022-11-18T06:52:14.248Z,66.05
2022-11-18T06:53:16.401Z,65.85
2022-11-18T06:54:19.526Z,65.73
2022-11-18T06:55:21.787Z,65.82
2022-11-18T06:56:25.001Z,65.68
2022-11-18T06:57:27.307Z,65.64
2022-11-18T06:58:29.488Z,65.63
2022-11-18T06:59:32.548Z,65.49
2022-11-18T07:00:34.801Z,65.53
2022-11-18T07:01:39.513Z,65.43
2022-11-18T07:02:41.838Z,65.23
2022-11-18T07:03:46.116Z,65.34
2022-11-18T07:04:48.504Z,65.48
2022-11-18T07:05:50.681Z,65.44
2022-11-18T07:06:52.937Z,65.22
2022-11-18T07:07:55.361Z,65.46
2022-11-18T07:09:01.576Z,65.40
2022-11-18T07:10:04.035Z,65.45
2022-11-18T07:11:08.313Z,65.48
2022-11-18T07:12:10.757Z,65.34
2022-11-18T07:13:13.037Z,65.29
2022-11-18T07:14:15.345Z,65.43
2022-11-18T07:15:17.697Z,65.46
2022-11-18T07:16:24.666Z,65.34
2022-11-18T07:17:27.217Z,65.42
2022-11-18T07:18:36.031Z,65.36
2022-11-18T07:19:39.568Z,65.45
2022-11-18T07:20:41.825Z,65.48
2022-11-18T07:21:44.356Z,65.46
2022-11-18T07:22:46.540Z,65.49
2022-11-18T07:23:49.209Z,65.53
2022-11-18T07:24:51.397Z,65.56
2022-11-18T07:25:55.565Z,65.76
2022-11-18T07:26:58.249Z,65.65
2022-11-18T07:28:00.562Z,65.76
2022-11-18T07:29:03.994Z,65.73
2022-11-18T07:30:06.803Z,65.52
2022-11-18T07:31:15.076Z,65.64
2022-11-18T07:32:17.329Z,65.75
2022-11-18T07:33:19.587Z,65.61
2022-11-18T07:34:21.873Z,65.65
2022-11-18T07:35:24.103Z,65.69
2022-11-18T07:36:34.025Z,65.78
2022-11-18T07:37:37.693Z,65.71
2022-11-18T07:38:40.736Z,65.84
2022-11-18T07:39:42.926Z,65.72
2022-11-18T07:40:45.193Z,65.82
2022-11-18T07:41:47.422Z,65.77
2022-11-18T07:42:49.616Z,65.73
2022-11-18T07:44:01.254Z,65.86
2022-11-18T07:45:04.317Z,65.74
2022-11-18T07:46:09.594Z,65.73
2022-11-18T07:47:11.969Z,65.90
2022-11-18T07:48:14.186Z,65.82
2022-11-18T07:49:16.600Z,65.96
2022-11-18T07:50:19.973Z,65.84
2022-11-18T07:51:27.411Z,65.97
2022-11-18T07:52:29.600Z,66.05
2022-11-18T07:53:32.318Z,66.00
2022-11-18T07:54:34.526Z,65.90
2022-11-18T07:55:36.795Z,66.00
2022-11-18T07:56:39.374Z,65.93
2022-11-18T07:57:41.544Z,65.85
2022-11-18T07:58:44.625Z,66.03
2022-11-18T07:59:46.803Z,66.03
2022-11-18T08:00:49.000Z,65.98
2022-11-18T08:01:52.778Z,66.08
2022-11-18T08:02:55.100Z,65.89
2022-11-18T08:03:58.795Z,65.92
2022-11-18T08:05:01.100Z,65.98
2022-11-18T08:06:05.688Z,65.92
2022-11-18T08:07:10.477Z,65.84
2022-11-18T08:08:12.741Z,65.81
2022-11-18T08:09:15.106Z,65.83
2022-11-18T08:10:17.669Z,65.96
2022-11-18T08:11:23.102Z,66.16
2022-11-18T08:12:25.566Z,66.25
2022-11-18T08:13:28.542Z,66.17
2022-11-18T08:14:30.766Z,66.17
2022-11-18T08:15:33.081Z,65.90
2022-11-18T08:16:35.310Z,65.97
2022-11-18T08:17:37.543Z,66.00
2022-11-18T08:18:39.763Z,65.95
2022-11-18T08:19:42.067Z,65.75
2022-11-18T08:20:47.474Z,65.86
2022-11-18T08:21:50.086Z,65.81
2022-11-18T08:22:52.322Z,65.87
2022-11-18T08:23:57.202Z,65.62
2022-11-18T08:24:59.419Z,65.73
2022-11-18T08:26:05.319Z,65.51
2022-11-18T08:27:07.589Z,65.45
2022-11-18T08:28:11.365Z,65.44
2022-11-18T08:29:13.617Z,65.45
2022-11-18T08:30:18.463Z,65.54
2022-11-18T08:31:25.405Z,65.42
2022-11-18T08:32:28.195Z,65.38
2022-11-18T08:33:30.478Z,65.42
2022-11-18T08:34:32.820Z,65.45
2022-11-18T08:35:35.307Z,65.46
2022-11-18T08:36:38.308Z,65.51
2022-11-18T08:37:40.672Z,65.47
2022-11-18T08:38:42.876Z,65.44
2022-11-18T08:39:45.093Z,65.28
2022-11-18T08:40:48.234Z,65.38
2022-11-18T08:41:53.680Z,65.34
2022-11-18T08:42:55.922Z,65.51
2022-11-18T08:43:58.372Z,65.62
2022-11-18T08:45:00.950Z,65.40
2022-11-18T08:46:03.165Z,65.49
2022-11-18T08:47:05.657Z,65.34
2022-11-18T08:48:08.352Z,65.26
2022-11-18T08:49:10.562Z,65.45
2022-11-18T08:50:13.216Z,65.61
2022-11-18T08:51:16.307Z,65.61
2022-11-18T08:52:18.634Z,65.79
2022-11-18T08:53:22.462Z,65.67
2022-11-18T08:54:24.629Z,65.79
2022-11-18T08:55:29.094Z,65.77
2022-11-18T08:56:31.345Z,65.81
2022-11-18T08:57:33.922Z,65.73
2022-11-18T08:58:36.124Z,65.51
2022-11-18T08:59:38.330Z,65.75
2022-11-18T09:00:40.516Z,65.71
2022-11-18T09:01:45.221Z,65.51
2022-11-18T09:02:49.766Z,65.58
2022-11-18T09:03:52.169Z,65.48
2022-11-18T09:04:54.458Z,65.60
2022-11-18T09:06:21.530Z,65.56
2022-11-18T09:07:23.878Z,65.63
2022-11-18T09:08:26.865Z,65.66
2022-11-18T09:09:31.356Z,65.67
2022-11-18T09:10:34.595Z,65.70
2022-11-18T09:11:39.784Z,65.63
2022-11-18T09:12:41.969Z,65.83
2022-11-18T09:14:58.353Z,65.54
2022-11-18T09:15:13.980Z,65.57
2022-11-18T09:16:16.948Z,65.40
2022-11-18T09:17:19.159Z,65.40
2022-11-18T09:18:21.750Z,65.38
2022-11-18T09:21:00.911Z,65.45
2022-11-18T09:22:07.323Z,65.20
2022-11-18T09:23:09.519Z,65.40
2022-11-18T09:24:11.905Z,65.29
2022-11-18T09:25:14.214Z,65.18
2022-11-18T09:26:20.968Z,65.20
2022-11-18T09:27:23.163Z,65.19
2022-11-18T09:28:25.499Z,65.16
2022-11-18T09:29:27.774Z,65.22
2022-11-18T09:30:30.015Z,65.11
2022-11-18T09:31:32.255Z,65.40
2022-11-18T09:32:34.547Z,65.42
2022-11-18T09:33:37.947Z,65.50
2022-11-18T09:34:40.162Z,65.59
2022-11-18T09:35:44.752Z,65.62
2022-11-18T09:36:46.941Z,65.66
2022-11-18T09:37:49.163Z,65.49
2022-11-18T09:38:53.588Z,65.70
2022-11-18T09:39:55.882Z,65.34
2022-11-18T09:41:10.136Z,65.46
2022-11-18T09:42:32.256Z,65.43
2022-11-18T09:44:00.592Z,65.31
2022-11-18T09:45:24.570Z,65.33
2022-11-18T09:47:00.048Z,65.43
2022-11-18T09:48:18.276Z,65.38
2022-11-18T09:49:39.317Z,65.37
2022-11-18T09:50:49.761Z,65.20
2022-11-18T09:51:54.270Z,65.29
2022-11-18T09:53:07.545Z,65.39
2022-11-18T09:54:13.384Z,65.16
2022-11-18T09:55:19.107Z,65.09
2022-11-18T09:56:22.982Z,65.20
2022-11-18T09:57:38.033Z,65.34
2022-11-18T09:58:40.514Z,65.19
2022-11-18T09:59:43.760Z,65.33
2022-11-18T10:00:46.821Z,65.14
2022-11-18T10:01:51.794Z,65.01
2022-11-18T10:03:03.067Z,64.93
2022-11-18T10:04:05.346Z,64.92
2022-11-18T10:05:21.104Z,64.82
2022-11-18T10:06:34.377Z,64.96
2022-11-18T10:07:46.029Z,64.75
2022-11-18T10:09:09.884Z,64.85
2022-11-18T10:10:19.661Z,64.66
2022-11-18T10:11:25.488Z,64.75
2022-11-18T10:12:40.055Z,64.88
2022-11-18T10:14:14.707Z,64.94
2022-11-18T10:15:43.891Z,64.92
2022-11-18T10:16:57.946Z,64.94
2022-11-18T10:18:03.148Z,64.83
2022-11-18T10:19:26.707Z,64.88
2022-11-18T10:20:46.943Z,65.04
2022-11-18T10:21:55.357Z,64.94
2022-11-18T10:23:09.403Z,64.82
2022-11-18T10:24:26.252Z,65.08
2022-11-18T10:25:28.474Z,65.15
2022-11-18T10:26:40.117Z,65.09
2022-11-18T10:27:47.988Z,64.96
2022-11-18T10:28:50.263Z,65.05
2022-11-18T10:29:56.075Z,65.00
2022-11-18T10:31:10.720Z,64.88
2022-11-18T10:32:20.761Z,65.08
2022-11-18T10:33:22.922Z,65.07
2022-11-18T10:34:25.129Z,65.04
2022-11-18T10:35:30.071Z,65.08
2022-11-18T10:36:34.431Z,65.16
2022-11-18T10:38:07.352Z,65.03
2022-11-18T10:39:15.418Z,65.22
2022-11-18T10:40:28.787Z,65.19
2022-11-18T10:41:39.875Z,65.03
2022-11-18T10:42:43.452Z,65.10
2022-11-18T10:43:45.669Z,65.11
2022-11-18T10:44:50.192Z,65.24
2022-11-18T10:45:52.676Z,65.33
2022-11-18T10:46:54.966Z,65.22
2022-11-18T10:48:01.444Z,65.35
2022-11-18T10:49:09.594Z,65.36
2022-11-18T10:50:41.893Z,65.38
2022-11-18T10:51:47.561Z,65.24
2022-11-18T10:52:53.841Z,65.28
2022-11-18T10:54:13.089Z,65.27
2022-11-18T10:55:26.151Z,65.37
2022-11-18T10:56:31.111Z,65.39
2022-11-18T10:57:37.379Z,65.42
2022-11-18T10:58:46.711Z,65.52
2022-11-18T10:59:51.927Z,65.53
2022-11-18T11:01:08.521Z,65.49
2022-11-18T11:02:23.985Z,65.58
2022-11-18T11:03:32.550Z,65.61
2022-11-18T11:04:37.271Z,65.61
2022-11-18T11:05:39.471Z,65.47
2022-11-18T11:06:41.671Z,65.55
2022-11-18T11:07:43.925Z,65.59
2022-11-18T11:08:51.621Z,65.50
2022-11-18T11:10:05.957Z,65.54
2022-11-18T11:11:26.165Z,65.68
2022-11-18T11:12:51.260Z,65.71
2022-11-18T11:14:09.830Z,65.55
2022-11-18T11:15:18.319Z,65.66
2022-11-18T11:16:26.131Z,65.52
2022-11-18T11:17:40.796Z,65.45
2022-11-18T11:18:55.716Z,65.68
2022-11-18T11:20:18.393Z,65.50
2022-11-18T11:21:23.033Z,65.35
2022-11-18T11:22:25.326Z,65.15
2022-11-18T11:23:28.876Z,65.18
2022-11-18T11:24:31.152Z,65.13
2022-11-18T11:29:30.116Z,65.17
2022-11-18T11:30:45.315Z,65.18
2022-11-18T11:32:13.788Z,65.23
2022-11-18T11:33:32.976Z,65.12
2022-11-18T11:34:41.266Z,65.18
2022-11-18T11:36:21.003Z,65.27
2022-11-18T11:37:33.963Z,65.27
2022-11-18T11:39:04.225Z,65.32
2022-11-18T11:40:48.508Z,65.25
2022-11-18T11:42:09.013Z,65.27
2022-11-18T11:43:36.258Z,65.33
2022-11-18T11:45:05.216Z,65.31
2022-11-18T11:46:32.125Z,65.29
2022-11-18T11:47:49.496Z,65.11
2022-11-18T11:49:03.834Z,65.31
2022-11-18T11:51:03.059Z,65.21
2022-11-18T11:52:40.796Z,65.00
2022-11-18T11:54:05.963Z,64.78
2022-11-18T11:55:17.728Z,64.85
2022-11-18T11:56:41.152Z,65.02
2022-11-18T11:57:55.164Z,65.09
2022-11-18T11:59:16.322Z,64.81
2022-11-18T12:00:21.060Z,64.91
2022-11-18T12:02:00.957Z,64.92
2022-11-18T12:03:18.123Z,65.15
2022-11-18T12:04:47.840Z,64.99
2022-11-18T12:05:50.968Z,65.12
2022-11-18T12:06:55.124Z,65.07
2022-11-18T12:08:00.574Z,65.15
2022-11-18T12:09:13.125Z,65.39
2022-11-18T12:10:37.938Z,65.40
2022-11-18T12:12:32.269Z,65.37
2022-11-18T12:14:12.068Z,65.38
2022-11-18T12:15:26.721Z,65.35
2022-11-18T12:16:56.375Z,65.37
2022-11-18T12:18:16.289Z,65.26
2022-11-18T12:19:21.850Z,65.19
2022-11-18T12:20:37.553Z,65.19
2022-11-18T12:21:44.197Z,65.11
2022-11-18T12:23:12.076Z,65.30
2022-11-18T12:24:24.707Z,65.15
2022-11-18T12:25:48.682Z,65.18
2022-11-18T12:26:51.809Z,65.12
2022-11-18T12:27:59.736Z,64.94
2022-11-18T12:29:24.018Z,64.99
2022-11-18T12:30:26.394Z,64.89
2022-11-18T12:31:33.526Z,65.01
2022-11-18T12:32:45.530Z,64.81
2022-11-18T12:34:01.997Z,64.96
2022-11-18T12:35:19.361Z,64.96
2022-11-18T12:36:27.335Z,65.12
2022-11-18T12:37:29.575Z,65.07
2022-11-18T12:38:32.494Z,64.79
2022-11-18T12:40:00.918Z,64.89
2022-11-18T12:41:23.379Z,64.68
2022-11-18T12:43:03.879Z,64.52
2022-11-18T12:44:07.178Z,64.47
2022-11-18T12:45:47.120Z,64.13
2022-11-18T12:46:50.852Z,64.31
2022-11-18T12:47:53.044Z,64.26
2022-11-18T12:48:55.301Z,64.03
2022-11-18T12:50:00.301Z,64.17
2022-11-18T12:51:30.159Z,64.03
2022-11-18T12:52:33.225Z,63.95
2022-11-18T12:53:47.270Z,64.05
2022-11-18T12:54:50.129Z,63.97
2022-11-18T12:55:52.444Z,63.94
2022-11-18T12:56:58.157Z,63.95
2022-11-18T12:58:00.415Z,63.95
2022-11-18T12:59:02.980Z,64.21
2022-11-18T13:00:18.134Z,64.31
2022-11-18T13:01:25.922Z,64.15
2022-11-18T13:02:30.408Z,64.00
2022-11-18T13:03:32.736Z,64.05
2022-11-18T13:04:41.417Z,64.10
2022-11-18T13:05:47.016Z,64.22
2022-11-18T13:06:53.127Z,64.25
2022-11-18T13:08:13.324Z,63.96
2022-11-18T13:09:20.649Z,64.06
2022-11-18T13:10:27.769Z,64.21
2022-11-18T13:11:45.217Z,64.31
2022-11-18T13:12:49.175Z,64.18
2022-11-18T13:14:15.583Z,64.24
2022-11-18T13:15:38.045Z,64.29
2022-11-18T13:17:00.014Z,64.48
2022-11-18T13:18:15.685Z,64.39
2022-11-18T13:19:25.338Z,64.68
2022-11-18T13:20:33.619Z,64.79
2022-11-18T13:21:54.766Z,64.99
2022-11-18T13:23:18.702Z,65.04
2022-11-18T13:24:22.606Z,64.76
2022-11-18T13:25:27.147Z,64.78
2022-11-18T13:26:33.503Z,64.66
2022-11-18T13:27:49.039Z,64.47
2022-11-18T13:29:25.226Z,64.67
2022-11-18T13:30:28.462Z,64.73
2022-11-18T13:32:00.799Z,64.80
2022-11-18T13:33:03.443Z,64.55
2022-11-18T13:34:33.394Z,64.67
2022-11-18T13:35:40.715Z,64.81
2022-11-18T13:36:45.559Z,64.78
2022-11-18T13:37:58.204Z,64.80
2022-11-18T13:39:04.488Z,64.89
2022-11-18T13:40:21.289Z,64.99
2022-11-18T13:41:24.921Z,65.14
2022-11-18T13:42:29.767Z,65.03
2022-11-18T13:43:32.578Z,65.00
2022-11-18T13:44:38.185Z,64.98
2022-11-18T13:45:41.548Z,64.90
2022-11-18T13:46:48.079Z,64.92
2022-11-18T13:48:09.161Z,64.60
2022-11-18T13:49:18.029Z,64.67
2022-11-18T13:50:36.296Z,64.48
2022-11-18T13:51:40.000Z,64.42
2022-11-18T13:52:48.389Z,63.82
2022-11-18T13:53:50.981Z,63.68
2022-11-18T13:54:56.148Z,63.63
2022-11-18T13:56:03.113Z,63.72
2022-11-18T13:57:05.608Z,63.88
2022-11-18T13:59:10.423Z,63.94
2022-11-18T14:00:07.963Z,63.51
2022-11-18T14:01:28.995Z,63.66
2022-11-18T14:02:37.801Z,63.89
2022-11-18T14:03:39.968Z,63.96
2022-11-18T14:04:53.153Z,63.71
2022-11-18T14:05:56.932Z,63.86
2022-11-18T14:07:29.510Z,63.74
2022-11-18T14:08:34.476Z,63.46
2022-11-18T14:09:36.764Z,63.48
2022-11-18T14:10:44.224Z,63.32
2022-11-18T14:12:01.971Z,63.43
2022-11-18T14:13:13.327Z,63.38
2022-11-18T14:14:37.771Z,63.48
2022-11-18T14:15:43.811Z,63.38
2022-11-18T14:16:48.178Z,63.45
2022-11-18T14:17:56.765Z,63.53
2022-11-18T14:19:06.486Z,63.62
2022-11-18T14:20:16.979Z,63.64
2022-11-18T14:21:33.853Z,63.52
2022-11-18T14:22:43.023Z,63.42
2022-11-18T14:23:46.029Z,63.21
2022-11-18T14:24:55.849Z,63.11
2022-11-18T14:25:59.988Z,63.20
2022-11-18T14:27:36.758Z,63.38
2022-11-18T14:28:40.457Z,63.28
2022-11-18T14:29:50.057Z,63.23
2022-11-18T14:31:03.958Z,63.49
2022-11-18T14:32:13.220Z,63.35
2022-11-18T14:33:21.872Z,63.30
2022-11-18T14:34:26.433Z,63.23
2022-11-18T14:35:33.382Z,63.06
2022-11-18T14:36:36.946Z,62.95
2022-11-18T14:37:39.176Z,62.80
2022-11-18T14:40:13.709Z,63.01
2022-11-18T14:41:44.017Z,63.13
2022-11-18T14:42:47.258Z,63.12
2022-11-18T14:43:50.015Z,63.20